sensor_id;sensor_type;location;lat;lon;timestamp;temperature;humidity
42617;DHT22;28250;52.320;0.360;2023-03-01T00:02:08;4.50;99.90
42617;DHT22;28250;52.320;0.360;2023-03-01T00:04:34;4.50;99.90
42617;DHT22;28250;52.320;0.360;2023-03-01T00:07:01;4.50;99.90
42617;DHT22;28250;52.320;0.360;2023-03-01T00:09:28;4.50;99.90
42617;DHT22;28250;52.320;0.360;2023-03-01T00:11:54;4.50;99.90
42617;DHT22;28250;52.320;0.360;2023-03-01T00:14:20;4.50;99.90
42617;DHT22;28250;52.320;0.360;2023-03-01T00:16:47;4.50;99.90
42617;DHT22;28250;52.320;0.360;2023-03-01T00:19:14;4.50;99.90
42617;DHT22;28250;52.320;0.360;2023-03-01T00:21:42;4.50;99.90
42617;DHT22;28250;52.320;0.360;2023-03-01T00:24:08;4.40;99.90
42617;DHT22;28250;52.320;0.360;2023-03-01T00:26:36;4.40;99.90
42617;DHT22;28250;52.320;0.360;2023-03-01T00:29:02;4.40;99.90
42617;DHT22;28250;52.320;0.360;2023-03-01T00:31:30;4.40;99.90
42617;DHT22;28250;52.320;0.360;2023-03-01T00:33:59;4.40;99.90
42617;DHT22;28250;52.320;0.360;2023-03-01T00:36:31;4.40;99.90
42617;DHT22;28250;52.320;0.360;2023-03-01T00:38:59;4.40;99.90
42617;DHT22;28250;52.320;0.360;2023-03-01T00:41:26;4.40;99.90
42617;DHT22;28250;52.320;0.360;2023-03-01T00:43:52;4.40;99.90
42617;DHT22;28250;52.320;0.360;2023-03-01T00:46:20;4.40;99.90
42617;DHT22;28250;52.320;0.360;2023-03-01T00:48:48;4.40;99.90
42617;DHT22;28250;52.320;0.360;2023-03-01T00:51:16;4.40;99.90
42617;DHT22;28250;52.320;0.360;2023-03-01T00:53:45;4.40;99.90
42617;DHT22;28250;52.320;0.360;2023-03-01T00:56:12;4.40;99.90
42617;DHT22;28250;52.320;0.360;2023-03-01T00:58:39;4.40;99.90
42617;DHT22;28250;52.320;0.360;2023-03-01T01:01:09;4.40;99.90
42617;DHT22;28250;52.320;0.360;2023-03-01T01:03:44;4.40;99.90
42617;DHT22;28250;52.320;0.360;2023-03-01T01:06:17;4.40;99.90
42617;DHT22;28250;52.320;0.360;2023-03-01T01:08:45;4.40;99.90
42617;DHT22;28250;52.320;0.360;2023-03-01T01:11:13;4.40;99.90
42617;DHT22;28250;52.320;0.360;2023-03-01T01:13:39;4.40;99.90
42617;DHT22;28250;52.320;0.360;2023-03-01T01:16:07;4.40;99.90
42617;DHT22;28250;52.320;0.360;2023-03-01T01:18:33;4.40;99.90
42617;DHT22;28250;52.320;0.360;2023-03-01T01:23:46;4.40;99.90
42617;DHT22;28250;52.320;0.360;2023-03-01T01:26:15;4.40;99.90
42617;DHT22;28250;52.320;0.360;2023-03-01T01:28:42;4.40;99.90
42617;DHT22;28250;52.320;0.360;2023-03-01T01:31:08;4.40;99.90
42617;DHT22;28250;52.320;0.360;2023-03-01T01:33:35;4.40;99.90
42617;DHT22;28250;52.320;0.360;2023-03-01T01:36:03;4.40;99.90
42617;DHT22;28250;52.320;0.360;2023-03-01T01:38:30;4.40;99.90
42617;DHT22;28250;52.320;0.360;2023-03-01T01:40:56;4.40;99.90
42617;DHT22;28250;52.320;0.360;2023-03-01T01:43:25;4.40;99.90
42617;DHT22;28250;52.320;0.360;2023-03-01T01:45:55;4.40;99.90
42617;DHT22;28250;52.320;0.360;2023-03-01T01:48:24;4.40;99.90
42617;DHT22;28250;52.320;0.360;2023-03-01T01:51:06;4.40;99.90
42617;DHT22;28250;52.320;0.360;2023-03-01T01:53:40;4.40;99.90
42617;DHT22;28250;52.320;0.360;2023-03-01T01:56:07;4.40;99.90
42617;DHT22;28250;52.320;0.360;2023-03-01T01:58:34;4.40;99.90
42617;DHT22;28250;52.320;0.360;2023-03-01T02:01:01;4.40;99.90
42617;DHT22;28250;52.320;0.360;2023-03-01T02:03:30;4.40;99.90
42617;DHT22;28250;52.320;0.360;2023-03-01T02:06:04;4.40;99.90
42617;DHT22;28250;52.320;0.360;2023-03-01T02:08:34;4.40;99.90
42617;DHT22;28250;52.320;0.360;2023-03-01T02:11:03;4.40;99.90
42617;DHT22;28250;52.320;0.360;2023-03-01T02:13:31;4.40;99.90
42617;DHT22;28250;52.320;0.360;2023-03-01T02:15:57;4.30;99.90
42617;DHT22;28250;52.320;0.360;2023-03-01T02:18:24;4.30;99.90
42617;DHT22;28250;52.320;0.360;2023-03-01T02:20:55;4.30;99.90
42617;DHT22;28250;52.320;0.360;2023-03-01T02:23:27;4.30;99.90
42617;DHT22;28250;52.320;0.360;2023-03-01T02:28:42;4.30;99.90
42617;DHT22;28250;52.320;0.360;2023-03-01T02:31:10;4.30;99.90
42617;DHT22;28250;52.320;0.360;2023-03-01T02:33:59;4.30;99.90
42617;DHT22;28250;52.320;0.360;2023-03-01T02:36:29;4.40;99.90
42617;DHT22;28250;52.320;0.360;2023-03-01T02:38:57;4.40;99.90
42617;DHT22;28250;52.320;0.360;2023-03-01T02:41:25;4.40;99.90
42617;DHT22;28250;52.320;0.360;2023-03-01T02:43:53;4.30;99.90
42617;DHT22;28250;52.320;0.360;2023-03-01T02:46:20;4.40;99.90
42617;DHT22;28250;52.320;0.360;2023-03-01T02:48:50;4.30;99.90
42617;DHT22;28250;52.320;0.360;2023-03-01T02:56:44;4.50;99.90
42617;DHT22;28250;52.320;0.360;2023-03-01T02:59:18;4.50;99.90
42617;DHT22;28250;52.320;0.360;2023-03-01T03:01:47;4.50;99.90
42617;DHT22;28250;52.320;0.360;2023-03-01T03:04:15;4.50;99.90
42617;DHT22;28250;52.320;0.360;2023-03-01T03:06:45;4.50;99.90
42617;DHT22;28250;52.320;0.360;2023-03-01T03:09:12;4.60;99.90
42617;DHT22;28250;52.320;0.360;2023-03-01T03:11:39;4.60;99.90
42617;DHT22;28250;52.320;0.360;2023-03-01T03:14:07;4.60;99.90
42617;DHT22;28250;52.320;0.360;2023-03-01T03:16:41;4.60;99.90
42617;DHT22;28250;52.320;0.360;2023-03-01T03:19:07;4.50;99.90
42617;DHT22;28250;52.320;0.360;2023-03-01T03:21:34;4.50;99.90
42617;DHT22;28250;52.320;0.360;2023-03-01T03:24:00;4.50;99.90
42617;DHT22;28250;52.320;0.360;2023-03-01T03:26:27;4.40;99.90
42617;DHT22;28250;52.320;0.360;2023-03-01T03:28:53;4.40;99.90
42617;DHT22;28250;52.320;0.360;2023-03-01T03:31:19;4.40;99.90
42617;DHT22;28250;52.320;0.360;2023-03-01T03:33:46;4.40;99.90
42617;DHT22;28250;52.320;0.360;2023-03-01T03:36:15;4.30;99.90
42617;DHT22;28250;52.320;0.360;2023-03-01T03:38:43;4.30;99.90
42617;DHT22;28250;52.320;0.360;2023-03-01T03:41:11;4.30;99.90
42617;DHT22;28250;52.320;0.360;2023-03-01T03:43:39;4.30;99.90
42617;DHT22;28250;52.320;0.360;2023-03-01T03:46:06;4.30;99.90
42617;DHT22;28250;52.320;0.360;2023-03-01T03:48:33;4.20;99.90
42617;DHT22;28250;52.320;0.360;2023-03-01T03:51:01;4.20;99.90
42617;DHT22;28250;52.320;0.360;2023-03-01T03:53:27;4.30;99.90
42617;DHT22;28250;52.320;0.360;2023-03-01T03:55:55;4.30;99.90
42617;DHT22;28250;52.320;0.360;2023-03-01T03:58:22;4.20;99.90
42617;DHT22;28250;52.320;0.360;2023-03-01T04:00:49;4.20;99.90
42617;DHT22;28250;52.320;0.360;2023-03-01T04:03:19;4.20;99.90
42617;DHT22;28250;52.320;0.360;2023-03-01T04:05:45;4.20;99.90
42617;DHT22;28250;52.320;0.360;2023-03-01T04:08:13;4.20;99.90
42617;DHT22;28250;52.320;0.360;2023-03-01T04:10:41;4.20;99.90
42617;DHT22;28250;52.320;0.360;2023-03-01T04:13:10;4.20;99.90
42617;DHT22;28250;52.320;0.360;2023-03-01T04:15:37;4.20;99.90
42617;DHT22;28250;52.320;0.360;2023-03-01T04:18:04;4.20;99.90
42617;DHT22;28250;52.320;0.360;2023-03-01T04:20:32;4.20;99.90
42617;DHT22;28250;52.320;0.360;2023-03-01T04:23:06;4.20;99.90
42617;DHT22;28250;52.320;0.360;2023-03-01T04:25:40;4.20;99.90
42617;DHT22;28250;52.320;0.360;2023-03-01T04:28:07;4.20;99.90
42617;DHT22;28250;52.320;0.360;2023-03-01T04:30:34;4.20;99.90
42617;DHT22;28250;52.320;0.360;2023-03-01T04:33:02;4.20;99.90
42617;DHT22;28250;52.320;0.360;2023-03-01T04:35:30;4.20;99.90
42617;DHT22;28250;52.320;0.360;2023-03-01T04:37:56;4.20;99.90
42617;DHT22;28250;52.320;0.360;2023-03-01T04:40:23;4.20;99.90
42617;DHT22;28250;52.320;0.360;2023-03-01T04:42:49;4.10;99.90
42617;DHT22;28250;52.320;0.360;2023-03-01T04:45:15;4.20;99.90
42617;DHT22;28250;52.320;0.360;2023-03-01T04:47:42;4.10;99.90
42617;DHT22;28250;52.320;0.360;2023-03-01T04:50:10;4.10;99.90
42617;DHT22;28250;52.320;0.360;2023-03-01T04:52:38;4.20;99.90
42617;DHT22;28250;52.320;0.360;2023-03-01T04:55:05;4.20;99.90
42617;DHT22;28250;52.320;0.360;2023-03-01T04:57:32;4.10;99.90
42617;DHT22;28250;52.320;0.360;2023-03-01T04:59:58;4.20;99.90
42617;DHT22;28250;52.320;0.360;2023-03-01T05:02:24;4.10;99.90
42617;DHT22;28250;52.320;0.360;2023-03-01T05:04:50;4.10;99.90
42617;DHT22;28250;52.320;0.360;2023-03-01T05:07:17;4.10;99.90
42617;DHT22;28250;52.320;0.360;2023-03-01T05:09:45;4.20;99.90
42617;DHT22;28250;52.320;0.360;2023-03-01T05:12:12;4.20;99.90
42617;DHT22;28250;52.320;0.360;2023-03-01T05:14:39;4.10;99.90
42617;DHT22;28250;52.320;0.360;2023-03-01T05:17:05;4.20;99.90
42617;DHT22;28250;52.320;0.360;2023-03-01T05:19:32;4.10;99.90
42617;DHT22;28250;52.320;0.360;2023-03-01T05:21:58;4.20;99.90
42617;DHT22;28250;52.320;0.360;2023-03-01T05:24:28;4.10;99.90
42617;DHT22;28250;52.320;0.360;2023-03-01T05:26:54;4.10;99.90
42617;DHT22;28250;52.320;0.360;2023-03-01T05:29:21;4.10;99.90
42617;DHT22;28250;52.320;0.360;2023-03-01T05:31:58;4.10;99.90
42617;DHT22;28250;52.320;0.360;2023-03-01T05:34:27;4.00;99.90
42617;DHT22;28250;52.320;0.360;2023-03-01T05:36:54;4.10;99.90
42617;DHT22;28250;52.320;0.360;2023-03-01T05:39:21;4.10;99.90
42617;DHT22;28250;52.320;0.360;2023-03-01T05:41:55;4.10;99.90
42617;DHT22;28250;52.320;0.360;2023-03-01T05:44:22;4.10;99.90
42617;DHT22;28250;52.320;0.360;2023-03-01T05:46:49;4.10;99.90
42617;DHT22;28250;52.320;0.360;2023-03-01T05:49:16;4.10;99.90
42617;DHT22;28250;52.320;0.360;2023-03-01T05:51:42;4.10;99.90
42617;DHT22;28250;52.320;0.360;2023-03-01T05:54:09;4.00;99.90
42617;DHT22;28250;52.320;0.360;2023-03-01T05:56:36;4.00;99.90
42617;DHT22;28250;52.320;0.360;2023-03-01T05:59:03;4.10;99.90
42617;DHT22;28250;52.320;0.360;2023-03-01T06:01:32;4.00;99.90
42617;DHT22;28250;52.320;0.360;2023-03-01T06:03:59;4.00;99.90
42617;DHT22;28250;52.320;0.360;2023-03-01T06:06:25;4.00;99.90
42617;DHT22;28250;52.320;0.360;2023-03-01T06:08:52;4.00;99.90
42617;DHT22;28250;52.320;0.360;2023-03-01T06:11:19;4.10;99.90
42617;DHT22;28250;52.320;0.360;2023-03-01T06:13:46;4.10;99.90
42617;DHT22;28250;52.320;0.360;2023-03-01T06:16:12;4.10;99.90
42617;DHT22;28250;52.320;0.360;2023-03-01T06:18:39;4.00;99.90
42617;DHT22;28250;52.320;0.360;2023-03-01T06:21:06;4.00;99.90
42617;DHT22;28250;52.320;0.360;2023-03-01T06:23:33;4.00;99.90
42617;DHT22;28250;52.320;0.360;2023-03-01T06:26:00;4.00;99.90
42617;DHT22;28250;52.320;0.360;2023-03-01T06:28:30;4.10;99.90
42617;DHT22;28250;52.320;0.360;2023-03-01T06:30:56;4.10;99.90
42617;DHT22;28250;52.320;0.360;2023-03-01T06:33:22;4.00;99.90
42617;DHT22;28250;52.320;0.360;2023-03-01T06:35:50;4.10;99.90
42617;DHT22;28250;52.320;0.360;2023-03-01T06:38:17;4.00;99.90
42617;DHT22;28250;52.320;0.360;2023-03-01T06:40:44;4.00;99.90
42617;DHT22;28250;52.320;0.360;2023-03-01T06:43:11;3.90;99.90
42617;DHT22;28250;52.320;0.360;2023-03-01T06:45:38;4.00;99.90
42617;DHT22;28250;52.320;0.360;2023-03-01T06:48:04;3.90;99.90
42617;DHT22;28250;52.320;0.360;2023-03-01T06:50:32;3.90;99.90
42617;DHT22;28250;52.320;0.360;2023-03-01T06:52:59;3.90;99.90
42617;DHT22;28250;52.320;0.360;2023-03-01T06:55:25;3.90;99.90
42617;DHT22;28250;52.320;0.360;2023-03-01T06:57:58;3.90;99.90
42617;DHT22;28250;52.320;0.360;2023-03-01T07:00:25;4.00;99.90
42617;DHT22;28250;52.320;0.360;2023-03-01T07:02:52;4.00;99.90
42617;DHT22;28250;52.320;0.360;2023-03-01T07:05:18;4.00;99.90
42617;DHT22;28250;52.320;0.360;2023-03-01T07:07:44;4.00;99.90
42617;DHT22;28250;52.320;0.360;2023-03-01T07:10:11;4.00;99.90
42617;DHT22;28250;52.320;0.360;2023-03-01T07:12:37;4.00;99.90
42617;DHT22;28250;52.320;0.360;2023-03-01T07:15:03;4.00;99.90
42617;DHT22;28250;52.320;0.360;2023-03-01T07:17:30;4.10;99.90
42617;DHT22;28250;52.320;0.360;2023-03-01T07:19:56;4.10;99.90
42617;DHT22;28250;52.320;0.360;2023-03-01T07:22:22;4.10;99.90
42617;DHT22;28250;52.320;0.360;2023-03-01T07:24:48;4.10;99.90
42617;DHT22;28250;52.320;0.360;2023-03-01T07:27:15;4.10;99.90
42617;DHT22;28250;52.320;0.360;2023-03-01T07:29:41;4.10;99.90
42617;DHT22;28250;52.320;0.360;2023-03-01T07:32:07;4.10;99.90
42617;DHT22;28250;52.320;0.360;2023-03-01T07:34:33;4.10;99.90
42617;DHT22;28250;52.320;0.360;2023-03-01T07:36:59;4.20;99.90
42617;DHT22;28250;52.320;0.360;2023-03-01T07:39:25;4.20;99.90
42617;DHT22;28250;52.320;0.360;2023-03-01T07:41:52;4.30;99.90
42617;DHT22;28250;52.320;0.360;2023-03-01T07:44:21;4.30;99.90
42617;DHT22;28250;52.320;0.360;2023-03-01T07:46:47;4.30;99.90
42617;DHT22;28250;52.320;0.360;2023-03-01T07:49:13;4.40;99.90
42617;DHT22;28250;52.320;0.360;2023-03-01T07:51:40;4.40;99.90
42617;DHT22;28250;52.320;0.360;2023-03-01T07:54:06;4.40;99.90
42617;DHT22;28250;52.320;0.360;2023-03-01T07:56:32;4.40;99.90
42617;DHT22;28250;52.320;0.360;2023-03-01T07:58:58;4.60;99.90
42617;DHT22;28250;52.320;0.360;2023-03-01T08:01:25;4.80;99.90
42617;DHT22;28250;52.320;0.360;2023-03-01T08:03:51;4.90;99.90
42617;DHT22;28250;52.320;0.360;2023-03-01T08:06:18;4.90;99.90
42617;DHT22;28250;52.320;0.360;2023-03-01T08:08:44;4.80;99.90
42617;DHT22;28250;52.320;0.360;2023-03-01T08:11:12;4.80;99.90
42617;DHT22;28250;52.320;0.360;2023-03-01T08:13:39;4.80;99.90
42617;DHT22;28250;52.320;0.360;2023-03-01T08:16:07;4.80;99.90
42617;DHT22;28250;52.320;0.360;2023-03-01T08:18:36;4.90;99.90
42617;DHT22;28250;52.320;0.360;2023-03-01T08:21:06;4.90;99.90
42617;DHT22;28250;52.320;0.360;2023-03-01T08:23:34;5.00;99.90
42617;DHT22;28250;52.320;0.360;2023-03-01T08:26:03;5.10;99.90
42617;DHT22;28250;52.320;0.360;2023-03-01T08:28:32;5.30;99.90
42617;DHT22;28250;52.320;0.360;2023-03-01T08:30:58;5.40;99.90
42617;DHT22;28250;52.320;0.360;2023-03-01T08:33:24;5.60;99.90
42617;DHT22;28250;52.320;0.360;2023-03-01T08:35:50;5.80;99.90
42617;DHT22;28250;52.320;0.360;2023-03-01T08:38:16;5.70;99.90
42617;DHT22;28250;52.320;0.360;2023-03-01T08:40:43;5.80;99.90
42617;DHT22;28250;52.320;0.360;2023-03-01T08:43:10;5.90;99.90
42617;DHT22;28250;52.320;0.360;2023-03-01T08:45:36;5.80;99.90
42617;DHT22;28250;52.320;0.360;2023-03-01T08:48:02;5.80;99.90
42617;DHT22;28250;52.320;0.360;2023-03-01T08:50:28;6.00;99.90
42617;DHT22;28250;52.320;0.360;2023-03-01T08:52:55;5.90;99.90
42617;DHT22;28250;52.320;0.360;2023-03-01T08:55:21;5.90;99.90
42617;DHT22;28250;52.320;0.360;2023-03-01T08:57:47;5.80;99.90
42617;DHT22;28250;52.320;0.360;2023-03-01T09:00:15;5.80;99.90
42617;DHT22;28250;52.320;0.360;2023-03-01T09:02:43;5.90;99.90
42617;DHT22;28250;52.320;0.360;2023-03-01T09:05:09;5.90;99.90
42617;DHT22;28250;52.320;0.360;2023-03-01T09:07:35;6.10;99.90
42617;DHT22;28250;52.320;0.360;2023-03-01T09:10:01;6.20;99.90
42617;DHT22;28250;52.320;0.360;2023-03-01T09:12:27;6.30;99.90
42617;DHT22;28250;52.320;0.360;2023-03-01T09:14:54;6.40;99.90
42617;DHT22;28250;52.320;0.360;2023-03-01T09:17:20;6.50;99.90
42617;DHT22;28250;52.320;0.360;2023-03-01T09:19:47;6.50;99.90
42617;DHT22;28250;52.320;0.360;2023-03-01T09:22:13;6.80;99.90
42617;DHT22;28250;52.320;0.360;2023-03-01T09:24:40;6.90;99.90
42617;DHT22;28250;52.320;0.360;2023-03-01T09:27:06;6.80;99.90
42617;DHT22;28250;52.320;0.360;2023-03-01T09:29:35;6.50;99.90
42617;DHT22;28250;52.320;0.360;2023-03-01T09:32:02;6.40;99.90
42617;DHT22;28250;52.320;0.360;2023-03-01T09:34:28;6.40;99.90
42617;DHT22;28250;52.320;0.360;2023-03-01T09:36:56;6.70;99.90
42617;DHT22;28250;52.320;0.360;2023-03-01T09:39:23;7.00;99.90
42617;DHT22;28250;52.320;0.360;2023-03-01T09:41:53;7.00;99.90
42617;DHT22;28250;52.320;0.360;2023-03-01T09:44:25;7.20;99.90
42617;DHT22;28250;52.320;0.360;2023-03-01T09:46:55;7.20;99.90
42617;DHT22;28250;52.320;0.360;2023-03-01T09:49:23;7.10;99.90
42617;DHT22;28250;52.320;0.360;2023-03-01T09:51:55;7.30;99.90
42617;DHT22;28250;52.320;0.360;2023-03-01T09:54:23;7.20;99.90
42617;DHT22;28250;52.320;0.360;2023-03-01T10:04:51;7.50;99.90
42617;DHT22;28250;52.320;0.360;2023-03-01T10:09:52;7.00;99.90
42617;DHT22;28250;52.320;0.360;2023-03-01T10:12:26;7.10;99.90
42617;DHT22;28250;52.320;0.360;2023-03-01T10:15:04;7.40;99.90
42617;DHT22;28250;52.320;0.360;2023-03-01T10:17:35;7.60;99.90
42617;DHT22;28250;52.320;0.360;2023-03-01T10:20:19;7.60;99.90
42617;DHT22;28250;52.320;0.360;2023-03-01T10:22:47;7.80;99.90
42617;DHT22;28250;52.320;0.360;2023-03-01T10:31:26;8.00;99.90
42617;DHT22;28250;52.320;0.360;2023-03-01T10:34:07;8.00;99.90
42617;DHT22;28250;52.320;0.360;2023-03-01T10:36:39;7.80;99.90
42617;DHT22;28250;52.320;0.360;2023-03-01T10:41:54;8.00;99.90
42617;DHT22;28250;52.320;0.360;2023-03-01T10:47:12;8.30;99.90
42617;DHT22;28250;52.320;0.360;2023-03-01T10:52:29;8.50;99.90
42617;DHT22;28250;52.320;0.360;2023-03-01T10:57:42;8.30;99.90
42617;DHT22;28250;52.320;0.360;2023-03-01T11:02:43;8.20;99.90
42617;DHT22;28250;52.320;0.360;2023-03-01T11:10:25;8.20;99.90
42617;DHT22;28250;52.320;0.360;2023-03-01T11:12:53;8.10;99.90
42617;DHT22;28250;52.320;0.360;2023-03-01T11:15:24;7.90;99.90
42617;DHT22;28250;52.320;0.360;2023-03-01T11:17:52;7.90;99.90
42617;DHT22;28250;52.320;0.360;2023-03-01T11:20:24;7.80;99.90
42617;DHT22;28250;52.320;0.360;2023-03-01T11:23:09;7.60;99.90
42617;DHT22;28250;52.320;0.360;2023-03-01T11:25:39;7.70;99.90
42617;DHT22;28250;52.320;0.360;2023-03-01T11:28:07;7.90;99.90
42617;DHT22;28250;52.320;0.360;2023-03-01T11:30:39;8.30;99.90
42617;DHT22;28250;52.320;0.360;2023-03-01T11:33:13;8.40;99.90
42617;DHT22;28250;52.320;0.360;2023-03-01T11:35:49;8.20;99.90
42617;DHT22;28250;52.320;0.360;2023-03-01T11:38:22;8.10;99.90
42617;DHT22;28250;52.320;0.360;2023-03-01T11:40:52;8.30;99.90
42617;DHT22;28250;52.320;0.360;2023-03-01T11:57:00;8.30;99.90
42617;DHT22;28250;52.320;0.360;2023-03-01T12:07:56;10.20;99.90
42617;DHT22;28250;52.320;0.360;2023-03-01T12:11:02;10.50;99.90
42617;DHT22;28250;52.320;0.360;2023-03-01T12:37:36;9.60;99.90
42617;DHT22;28250;52.320;0.360;2023-03-01T12:48:35;10.30;99.90
42617;DHT22;28250;52.320;0.360;2023-03-01T12:51:24;9.90;99.90
42617;DHT22;28250;52.320;0.360;2023-03-01T12:53:53;8.90;99.90
42617;DHT22;28250;52.320;0.360;2023-03-01T12:56:22;8.30;99.90
42617;DHT22;28250;52.320;0.360;2023-03-01T12:58:54;8.30;99.90
42617;DHT22;28250;52.320;0.360;2023-03-01T13:20:31;8.80;99.90
42617;DHT22;28250;52.320;0.360;2023-03-01T13:23:13;9.70;99.90
42617;DHT22;28250;52.320;0.360;2023-03-01T13:31:11;8.70;99.90
42617;DHT22;28250;52.320;0.360;2023-03-01T13:33:55;8.70;99.90
42617;DHT22;28250;52.320;0.360;2023-03-01T13:38:58;8.70;99.90
42617;DHT22;28250;52.320;0.360;2023-03-01T13:52:23;9.10;99.90
42617;DHT22;28250;52.320;0.360;2023-03-01T13:57:41;9.70;99.90
42617;DHT22;28250;52.320;0.360;2023-03-01T14:03:00;10.60;99.90
42617;DHT22;28250;52.320;0.360;2023-03-01T14:05:30;10.40;99.90
42617;DHT22;28250;52.320;0.360;2023-03-01T14:07:57;10.00;99.90
42617;DHT22;28250;52.320;0.360;2023-03-01T14:10:25;9.80;99.90
42617;DHT22;28250;52.320;0.360;2023-03-01T14:13:06;9.60;99.90
42617;DHT22;28250;52.320;0.360;2023-03-01T14:15:38;9.40;99.90
42617;DHT22;28250;52.320;0.360;2023-03-01T14:18:18;9.00;99.90
42617;DHT22;28250;52.320;0.360;2023-03-01T14:20:47;8.70;99.90
42617;DHT22;28250;52.320;0.360;2023-03-01T14:23:18;8.60;99.90
42617;DHT22;28250;52.320;0.360;2023-03-01T14:25:48;8.70;99.90
42617;DHT22;28250;52.320;0.360;2023-03-01T14:28:21;8.80;99.90
42617;DHT22;28250;52.320;0.360;2023-03-01T14:30:51;8.90;99.90
42617;DHT22;28250;52.320;0.360;2023-03-01T14:35:58;9.00;99.90
42617;DHT22;28250;52.320;0.360;2023-03-01T14:38:31;9.20;99.90
42617;DHT22;28250;52.320;0.360;2023-03-01T14:41:18;9.20;99.90
42617;DHT22;28250;52.320;0.360;2023-03-01T14:43:48;9.20;99.90
42617;DHT22;28250;52.320;0.360;2023-03-01T14:46:18;9.40;99.90
42617;DHT22;28250;52.320;0.360;2023-03-01T14:49:05;9.30;99.90
42617;DHT22;28250;52.320;0.360;2023-03-01T14:51:35;9.20;99.90
42617;DHT22;28250;52.320;0.360;2023-03-01T14:54:04;9.20;99.90
42617;DHT22;28250;52.320;0.360;2023-03-01T14:56:43;9.00;99.90
42617;DHT22;28250;52.320;0.360;2023-03-01T14:59:11;8.70;99.90
42617;DHT22;28250;52.320;0.360;2023-03-01T15:01:37;8.40;99.90
42617;DHT22;28250;52.320;0.360;2023-03-01T15:04:06;8.20;99.90
42617;DHT22;28250;52.320;0.360;2023-03-01T15:06:32;8.20;99.90
42617;DHT22;28250;52.320;0.360;2023-03-01T15:08:58;8.30;99.90
42617;DHT22;28250;52.320;0.360;2023-03-01T15:11:28;8.20;99.90
42617;DHT22;28250;52.320;0.360;2023-03-01T15:13:56;8.20;99.90
42617;DHT22;28250;52.320;0.360;2023-03-01T15:16:24;8.40;99.90
42617;DHT22;28250;52.320;0.360;2023-03-01T15:23:48;8.20;99.90
42617;DHT22;28250;52.320;0.360;2023-03-01T15:29:03;8.60;99.90
42617;DHT22;28250;52.320;0.360;2023-03-01T15:31:31;8.80;99.90
42617;DHT22;28250;52.320;0.360;2023-03-01T15:34:09;8.60;99.90
42617;DHT22;28250;52.320;0.360;2023-03-01T15:36:39;8.40;99.90
42617;DHT22;28250;52.320;0.360;2023-03-01T15:42:13;8.20;99.90
42617;DHT22;28250;52.320;0.360;2023-03-01T15:47:47;8.10;99.90
42617;DHT22;28250;52.320;0.360;2023-03-01T15:53:04;8.00;99.90
42617;DHT22;28250;52.320;0.360;2023-03-01T15:55:32;7.90;99.90
42617;DHT22;28250;52.320;0.360;2023-03-01T16:00:26;8.10;99.90
42617;DHT22;28250;52.320;0.360;2023-03-01T16:02:52;7.80;99.90
42617;DHT22;28250;52.320;0.360;2023-03-01T16:05:22;7.70;99.90
42617;DHT22;28250;52.320;0.360;2023-03-01T16:07:51;7.60;99.90
42617;DHT22;28250;52.320;0.360;2023-03-01T16:10:17;7.40;99.90
42617;DHT22;28250;52.320;0.360;2023-03-01T16:12:44;7.30;99.90
42617;DHT22;28250;52.320;0.360;2023-03-01T16:15:15;7.30;99.90
42617;DHT22;28250;52.320;0.360;2023-03-01T16:17:45;7.30;99.90
42617;DHT22;28250;52.320;0.360;2023-03-01T16:20:19;7.20;99.90
42617;DHT22;28250;52.320;0.360;2023-03-01T16:22:45;7.20;99.90
42617;DHT22;28250;52.320;0.360;2023-03-01T16:25:13;7.20;99.90
42617;DHT22;28250;52.320;0.360;2023-03-01T16:27:42;7.10;99.90
42617;DHT22;28250;52.320;0.360;2023-03-01T16:30:09;7.10;99.90
42617;DHT22;28250;52.320;0.360;2023-03-01T16:32:38;7.10;99.90
42617;DHT22;28250;52.320;0.360;2023-03-01T16:35:05;7.00;99.90
42617;DHT22;28250;52.320;0.360;2023-03-01T16:37:32;7.00;99.90
42617;DHT22;28250;52.320;0.360;2023-03-01T16:39:59;7.00;99.90
42617;DHT22;28250;52.320;0.360;2023-03-01T16:42:25;6.90;99.90
42617;DHT22;28250;52.320;0.360;2023-03-01T16:44:55;6.90;99.90
42617;DHT22;28250;52.320;0.360;2023-03-01T16:47:22;7.00;99.90
42617;DHT22;28250;52.320;0.360;2023-03-01T16:49:51;7.00;99.90
42617;DHT22;28250;52.320;0.360;2023-03-01T16:52:18;7.10;99.90
42617;DHT22;28250;52.320;0.360;2023-03-01T16:54:45;7.10;99.90
42617;DHT22;28250;52.320;0.360;2023-03-01T16:57:12;7.10;99.90
42617;DHT22;28250;52.320;0.360;2023-03-01T16:59:38;7.10;99.90
42617;DHT22;28250;52.320;0.360;2023-03-01T17:02:05;7.10;99.90
42617;DHT22;28250;52.320;0.360;2023-03-01T17:04:32;7.10;99.90
42617;DHT22;28250;52.320;0.360;2023-03-01T17:06:58;7.10;99.90
42617;DHT22;28250;52.320;0.360;2023-03-01T17:09:24;7.10;99.90
42617;DHT22;28250;52.320;0.360;2023-03-01T17:11:50;7.10;99.90
42617;DHT22;28250;52.320;0.360;2023-03-01T17:14:17;7.10;99.90
42617;DHT22;28250;52.320;0.360;2023-03-01T17:16:43;7.00;99.90
42617;DHT22;28250;52.320;0.360;2023-03-01T17:19:10;7.00;99.90
42617;DHT22;28250;52.320;0.360;2023-03-01T17:21:37;6.90;99.90
42617;DHT22;28250;52.320;0.360;2023-03-01T17:24:03;6.90;99.90
42617;DHT22;28250;52.320;0.360;2023-03-01T17:26:29;6.80;99.90
42617;DHT22;28250;52.320;0.360;2023-03-01T17:28:56;6.70;99.90
42617;DHT22;28250;52.320;0.360;2023-03-01T17:31:23;6.60;99.90
42617;DHT22;28250;52.320;0.360;2023-03-01T17:33:50;6.50;99.90
42617;DHT22;28250;52.320;0.360;2023-03-01T17:36:17;6.50;99.90
42617;DHT22;28250;52.320;0.360;2023-03-01T17:38:43;6.40;99.90
42617;DHT22;28250;52.320;0.360;2023-03-01T17:41:10;6.40;99.90
42617;DHT22;28250;52.320;0.360;2023-03-01T17:43:37;6.40;99.90
42617;DHT22;28250;52.320;0.360;2023-03-01T17:46:03;6.40;99.90
42617;DHT22;28250;52.320;0.360;2023-03-01T17:48:29;6.20;99.90
42617;DHT22;28250;52.320;0.360;2023-03-01T17:50:55;6.10;99.90
42617;DHT22;28250;52.320;0.360;2023-03-01T17:53:22;6.00;99.90
42617;DHT22;28250;52.320;0.360;2023-03-01T17:55:48;5.80;99.90
42617;DHT22;28250;52.320;0.360;2023-03-01T17:58:18;5.70;99.90
42617;DHT22;28250;52.320;0.360;2023-03-01T18:00:48;5.60;99.90
42617;DHT22;28250;52.320;0.360;2023-03-01T18:03:15;5.70;99.90
42617;DHT22;28250;52.320;0.360;2023-03-01T18:05:41;5.70;99.90
42617;DHT22;28250;52.320;0.360;2023-03-01T18:08:07;5.80;99.90
42617;DHT22;28250;52.320;0.360;2023-03-01T18:10:33;5.80;99.90
42617;DHT22;28250;52.320;0.360;2023-03-01T18:13:02;5.80;99.90
42617;DHT22;28250;52.320;0.360;2023-03-01T18:15:30;5.80;99.90
42617;DHT22;28250;52.320;0.360;2023-03-01T18:17:56;5.80;99.90
42617;DHT22;28250;52.320;0.360;2023-03-01T18:20:23;5.90;99.90
42617;DHT22;28250;52.320;0.360;2023-03-01T18:22:50;5.90;99.90
42617;DHT22;28250;52.320;0.360;2023-03-01T18:25:17;5.90;99.90
42617;DHT22;28250;52.320;0.360;2023-03-01T18:27:44;5.90;99.90
42617;DHT22;28250;52.320;0.360;2023-03-01T18:30:10;6.00;99.90
42617;DHT22;28250;52.320;0.360;2023-03-01T18:32:37;6.00;99.90
42617;DHT22;28250;52.320;0.360;2023-03-01T18:35:05;6.00;99.90
42617;DHT22;28250;52.320;0.360;2023-03-01T18:37:32;6.00;99.90
42617;DHT22;28250;52.320;0.360;2023-03-01T18:39:58;6.00;99.90